sensor_id;sensor_type;location;lat;lon;timestamp;P1;durP1;ratioP1;P2;durP2;ratioP2
22068;SDS011;13887;57.196;-2.100;2023-05-10T00:01:28;13.83;;;13.33;;
22068;SDS011;13887;57.196;-2.100;2023-05-10T00:03:55;13.67;;;13.17;;
22068;SDS011;13887;57.196;-2.100;2023-05-10T00:06:22;13.07;;;12.67;;
22068;SDS011;13887;57.196;-2.100;2023-05-10T00:08:49;13.70;;;13.20;;
22068;SDS011;13887;57.196;-2.100;2023-05-10T00:11:16;13.77;;;13.27;;
22068;SDS011;13887;57.196;-2.100;2023-05-10T00:13:43;13.83;;;13.33;;
22068;SDS011;13887;57.196;-2.100;2023-05-10T00:16:10;13.60;;;13.10;;
22068;SDS011;13887;57.196;-2.100;2023-05-10T00:18:38;14.00;;;13.50;;
22068;SDS011;13887;57.196;-2.100;2023-05-10T00:21:05;13.93;;;13.43;;
22068;SDS011;13887;57.196;-2.100;2023-05-10T00:23:32;13.67;;;13.17;;
22068;SDS011;13887;57.196;-2.100;2023-05-10T00:25:59;13.90;;;13.40;;
22068;SDS011;13887;57.196;-2.100;2023-05-10T00:28:27;13.73;;;13.23;;
22068;SDS011;13887;57.196;-2.100;2023-05-10T00:30:55;13.57;;;13.07;;
22068;SDS011;13887;57.196;-2.100;2023-05-10T00:33:22;13.77;;;13.27;;
22068;SDS011;13887;57.196;-2.100;2023-05-10T00:35:49;14.10;;;13.60;;
22068;SDS011;13887;57.196;-2.100;2023-05-10T00:38:16;13.70;;;13.20;;
22068;SDS011;13887;57.196;-2.100;2023-05-10T00:40:44;13.43;;;12.93;;
22068;SDS011;13887;57.196;-2.100;2023-05-10T00:43:18;13.33;;;12.90;;
22068;SDS011;13887;57.196;-2.100;2023-05-10T00:45:46;13.53;;;13.03;;
22068;SDS011;13887;57.196;-2.100;2023-05-10T00:48:13;13.27;;;12.87;;
22068;SDS011;13887;57.196;-2.100;2023-05-10T00:50:40;13.43;;;13.00;;
22068;SDS011;13887;57.196;-2.100;2023-05-10T00:53:08;13.53;;;13.03;;
22068;SDS011;13887;57.196;-2.100;2023-05-10T00:55:35;13.80;;;13.30;;
22068;SDS011;13887;57.196;-2.100;2023-05-10T00:58:02;13.03;;;12.63;;
22068;SDS011;13887;57.196;-2.100;2023-05-10T01:00:30;13.17;;;12.77;;
22068;SDS011;13887;57.196;-2.100;2023-05-10T01:03:26;13.73;;;13.23;;
22068;SDS011;13887;57.196;-2.100;2023-05-10T01:05:53;13.60;;;13.10;;
22068;SDS011;13887;57.196;-2.100;2023-05-10T01:08:21;12.80;;;12.40;;
22068;SDS011;13887;57.196;-2.100;2023-05-10T01:10:48;13.60;;;13.10;;
22068;SDS011;13887;57.196;-2.100;2023-05-10T01:13:29;13.60;;;13.10;;
22068;SDS011;13887;57.196;-2.100;2023-05-10T01:15:58;13.17;;;12.77;;
22068;SDS011;13887;57.196;-2.100;2023-05-10T01:18:29;13.17;;;12.77;;
22068;SDS011;13887;57.196;-2.100;2023-05-10T01:23:45;13.27;;;12.87;;
22068;SDS011;13887;57.196;-2.100;2023-05-10T01:26:39;13.17;;;12.77;;
22068;SDS011;13887;57.196;-2.100;2023-05-10T01:35:11;13.30;;;12.90;;
22068;SDS011;13887;57.196;-2.100;2023-05-10T01:37:59;12.70;;;12.30;;
22068;SDS011;13887;57.196;-2.100;2023-05-10T01:40:44;13.60;;;13.10;;
22068;SDS011;13887;57.196;-2.100;2023-05-10T01:43:22;13.37;;;12.93;;
22068;SDS011;13887;57.196;-2.100;2023-05-10T01:46:00;13.20;;;12.80;;
22068;SDS011;13887;57.196;-2.100;2023-05-10T01:48:38;13.47;;;12.97;;
22068;SDS011;13887;57.196;-2.100;2023-05-10T01:51:17;13.67;;;13.17;;
22068;SDS011;13887;57.196;-2.100;2023-05-10T01:53:49;13.20;;;12.80;;
22068;SDS011;13887;57.196;-2.100;2023-05-10T01:56:21;13.47;;;13.03;;
22068;SDS011;13887;57.196;-2.100;2023-05-10T01:58:52;13.53;;;13.03;;
22068;SDS011;13887;57.196;-2.100;2023-05-10T02:01:20;12.97;;;12.57;;
22068;SDS011;13887;57.196;-2.100;2023-05-10T02:03:50;12.90;;;12.50;;
22068;SDS011;13887;57.196;-2.100;2023-05-10T02:06:18;13.27;;;12.87;;
22068;SDS011;13887;57.196;-2.100;2023-05-10T02:08:48;12.83;;;12.43;;
22068;SDS011;13887;57.196;-2.100;2023-05-10T02:11:16;13.23;;;12.83;;
22068;SDS011;13887;57.196;-2.100;2023-05-10T02:13:44;12.83;;;12.43;;
22068;SDS011;13887;57.196;-2.100;2023-05-10T02:16:13;13.57;;;13.07;;
22068;SDS011;13887;57.196;-2.100;2023-05-10T02:18:42;13.17;;;12.77;;
22068;SDS011;13887;57.196;-2.100;2023-05-10T02:21:10;13.37;;;12.93;;
22068;SDS011;13887;57.196;-2.100;2023-05-10T02:23:38;13.33;;;12.90;;
22068;SDS011;13887;57.196;-2.100;2023-05-10T02:26:06;13.17;;;12.77;;
22068;SDS011;13887;57.196;-2.100;2023-05-10T02:28:34;13.27;;;12.87;;
22068;SDS011;13887;57.196;-2.100;2023-05-10T02:31:05;13.07;;;12.67;;
22068;SDS011;13887;57.196;-2.100;2023-05-10T02:33:32;12.93;;;12.53;;
22068;SDS011;13887;57.196;-2.100;2023-05-10T02:36:01;13.50;;;13.00;;
22068;SDS011;13887;57.196;-2.100;2023-05-10T02:38:29;13.13;;;12.73;;
22068;SDS011;13887;57.196;-2.100;2023-05-10T02:40:57;13.00;;;12.60;;
22068;SDS011;13887;57.196;-2.100;2023-05-10T02:43:25;13.27;;;12.87;;
22068;SDS011;13887;57.196;-2.100;2023-05-10T02:45:55;13.50;;;13.00;;
22068;SDS011;13887;57.196;-2.100;2023-05-10T02:48:22;13.70;;;13.20;;
22068;SDS011;13887;57.196;-2.100;2023-05-10T02:50:49;13.33;;;12.93;;
22068;SDS011;13887;57.196;-2.100;2023-05-10T02:53:22;13.30;;;12.90;;
22068;SDS011;13887;57.196;-2.100;2023-05-10T02:55:52;13.30;;;12.87;;
22068;SDS011;13887;57.196;-2.100;2023-05-10T02:58:23;13.20;;;12.80;;
22068;SDS011;13887;57.196;-2.100;2023-05-10T03:00:50;13.23;;;12.83;;
22068;SDS011;13887;57.196;-2.100;2023-05-10T03:03:17;13.00;;;12.60;;
22068;SDS011;13887;57.196;-2.100;2023-05-10T03:05:48;12.83;;;12.43;;
22068;SDS011;13887;57.196;-2.100;2023-05-10T03:08:15;13.13;;;12.73;;
22068;SDS011;13887;57.196;-2.100;2023-05-10T03:16:32;13.20;;;12.80;;
22068;SDS011;13887;57.196;-2.100;2023-05-10T03:19:26;12.27;;;11.87;;
22068;SDS011;13887;57.196;-2.100;2023-05-10T03:21:59;13.10;;;12.70;;
22068;SDS011;13887;57.196;-2.100;2023-05-10T03:24:33;13.03;;;12.63;;
22068;SDS011;13887;57.196;-2.100;2023-05-10T03:27:02;13.03;;;12.63;;
22068;SDS011;13887;57.196;-2.100;2023-05-10T03:29:31;13.33;;;12.93;;
22068;SDS011;13887;57.196;-2.100;2023-05-10T03:31:58;12.97;;;12.57;;
22068;SDS011;13887;57.196;-2.100;2023-05-10T03:34:29;13.13;;;12.73;;
22068;SDS011;13887;57.196;-2.100;2023-05-10T03:36:56;12.73;;;12.33;;
22068;SDS011;13887;57.196;-2.100;2023-05-10T03:39:25;13.03;;;12.63;;
22068;SDS011;13887;57.196;-2.100;2023-05-10T03:41:56;13.17;;;12.77;;
22068;SDS011;13887;57.196;-2.100;2023-05-10T03:44:23;13.67;;;13.17;;
22068;SDS011;13887;57.196;-2.100;2023-05-10T03:46:50;13.40;;;13.00;;
22068;SDS011;13887;57.196;-2.100;2023-05-10T03:49:17;13.33;;;12.93;;
22068;SDS011;13887;57.196;-2.100;2023-05-10T03:51:44;13.40;;;13.00;;
22068;SDS011;13887;57.196;-2.100;2023-05-10T03:54:11;13.00;;;12.60;;
22068;SDS011;13887;57.196;-2.100;2023-05-10T03:56:38;13.20;;;12.80;;
22068;SDS011;13887;57.196;-2.100;2023-05-10T03:59:05;13.00;;;12.60;;
22068;SDS011;13887;57.196;-2.100;2023-05-10T04:01:34;13.23;;;12.83;;
22068;SDS011;13887;57.196;-2.100;2023-05-10T04:04:01;12.97;;;12.57;;
22068;SDS011;13887;57.196;-2.100;2023-05-10T04:06:30;13.37;;;12.97;;
22068;SDS011;13887;57.196;-2.100;2023-05-10T04:08:57;12.97;;;12.57;;
22068;SDS011;13887;57.196;-2.100;2023-05-10T04:11:26;13.30;;;12.90;;
22068;SDS011;13887;57.196;-2.100;2023-05-10T04:13:53;13.00;;;12.60;;
22068;SDS011;13887;57.196;-2.100;2023-05-10T04:16:20;12.80;;;12.40;;
22068;SDS011;13887;57.196;-2.100;2023-05-10T04:18:47;13.30;;;12.90;;
22068;SDS011;13887;57.196;-2.100;2023-05-10T04:21:14;13.20;;;12.80;;
22068;SDS011;13887;57.196;-2.100;2023-05-10T04:23:41;13.23;;;12.83;;
22068;SDS011;13887;57.196;-2.100;2023-05-10T04:26:08;12.97;;;12.57;;
22068;SDS011;13887;57.196;-2.100;2023-05-10T04:28:35;13.00;;;12.60;;
22068;SDS011;13887;57.196;-2.100;2023-05-10T04:31:05;12.97;;;12.57;;
22068;SDS011;13887;57.196;-2.100;2023-05-10T04:33:34;12.90;;;12.50;;
22068;SDS011;13887;57.196;-2.100;2023-05-10T04:36:02;12.90;;;12.50;;
22068;SDS011;13887;57.196;-2.100;2023-05-10T04:38:29;12.93;;;12.53;;
22068;SDS011;13887;57.196;-2.100;2023-05-10T04:41:07;13.00;;;12.60;;
22068;SDS011;13887;57.196;-2.100;2023-05-10T04:43:34;12.63;;;12.23;;
22068;SDS011;13887;57.196;-2.100;2023-05-10T04:46:02;12.93;;;12.53;;
22068;SDS011;13887;57.196;-2.100;2023-05-10T04:48:30;13.20;;;12.80;;
22068;SDS011;13887;57.196;-2.100;2023-05-10T04:50:57;13.20;;;12.80;;
22068;SDS011;13887;57.196;-2.100;2023-05-10T04:53:24;13.47;;;13.03;;
22068;SDS011;13887;57.196;-2.100;2023-05-10T04:55:51;13.33;;;12.93;;
22068;SDS011;13887;57.196;-2.100;2023-05-10T04:58:18;13.17;;;12.77;;
22068;SDS011;13887;57.196;-2.100;2023-05-10T05:00:45;13.77;;;13.27;;
22068;SDS011;13887;57.196;-2.100;2023-05-10T05:03:12;12.87;;;12.47;;
22068;SDS011;13887;57.196;-2.100;2023-05-10T05:05:39;12.70;;;12.30;;
22068;SDS011;13887;57.196;-2.100;2023-05-10T05:08:06;13.23;;;12.83;;
22068;SDS011;13887;57.196;-2.100;2023-05-10T05:10:32;13.23;;;12.83;;
22068;SDS011;13887;57.196;-2.100;2023-05-10T05:12:59;13.50;;;13.00;;
22068;SDS011;13887;57.196;-2.100;2023-05-10T05:15:26;13.37;;;12.93;;
22068;SDS011;13887;57.196;-2.100;2023-05-10T05:17:53;13.37;;;12.90;;
22068;SDS011;13887;57.196;-2.100;2023-05-10T05:20:20;13.67;;;13.17;;
22068;SDS011;13887;57.196;-2.100;2023-05-10T05:22:47;13.10;;;12.70;;
22068;SDS011;13887;57.196;-2.100;2023-05-10T05:25:14;13.10;;;12.70;;
22068;SDS011;13887;57.196;-2.100;2023-05-10T05:27:42;13.20;;;12.80;;
22068;SDS011;13887;57.196;-2.100;2023-05-10T05:30:09;13.50;;;13.00;;
22068;SDS011;13887;57.196;-2.100;2023-05-10T05:32:36;13.00;;;12.60;;
22068;SDS011;13887;57.196;-2.100;2023-05-10T05:35:03;13.27;;;12.87;;
22068;SDS011;13887;57.196;-2.100;2023-05-10T05:37:30;13.50;;;13.00;;
22068;SDS011;13887;57.196;-2.100;2023-05-10T05:39:57;13.43;;;12.97;;
22068;SDS011;13887;57.196;-2.100;2023-05-10T05:42:24;13.07;;;12.67;;
22068;SDS011;13887;57.196;-2.100;2023-05-10T05:44:52;13.27;;;12.87;;
22068;SDS011;13887;57.196;-2.100;2023-05-10T05:47:18;13.47;;;13.00;;
22068;SDS011;13887;57.196;-2.100;2023-05-10T05:49:45;13.17;;;12.77;;
22068;SDS011;13887;57.196;-2.100;2023-05-10T05:52:12;12.93;;;12.53;;
22068;SDS011;13887;57.196;-2.100;2023-05-10T05:54:39;13.10;;;12.70;;
22068;SDS011;13887;57.196;-2.100;2023-05-10T05:57:06;13.00;;;12.60;;
22068;SDS011;13887;57.196;-2.100;2023-05-10T05:59:34;13.53;;;13.03;;
22068;SDS011;13887;57.196;-2.100;2023-05-10T06:02:00;13.70;;;13.20;;
22068;SDS011;13887;57.196;-2.100;2023-05-10T06:04:27;13.50;;;13.00;;
22068;SDS011;13887;57.196;-2.100;2023-05-10T06:06:55;13.23;;;12.83;;
22068;SDS011;13887;57.196;-2.100;2023-05-10T06:09:22;13.30;;;12.90;;
22068;SDS011;13887;57.196;-2.100;2023-05-10T06:11:51;13.23;;;12.83;;
22068;SDS011;13887;57.196;-2.100;2023-05-10T06:14:19;12.87;;;12.47;;
22068;SDS011;13887;57.196;-2.100;2023-05-10T06:16:47;13.37;;;12.87;;
22068;SDS011;13887;57.196;-2.100;2023-05-10T06:19:14;13.10;;;12.70;;
22068;SDS011;13887;57.196;-2.100;2023-05-10T06:21:41;13.03;;;12.63;;
22068;SDS011;13887;57.196;-2.100;2023-05-10T06:24:08;13.53;;;13.03;;
22068;SDS011;13887;57.196;-2.100;2023-05-10T06:26:35;13.17;;;12.77;;
22068;SDS011;13887;57.196;-2.100;2023-05-10T06:29:02;13.53;;;13.03;;
22068;SDS011;13887;57.196;-2.100;2023-05-10T06:31:29;13.00;;;12.60;;
22068;SDS011;13887;57.196;-2.100;2023-05-10T06:33:56;13.50;;;13.00;;
22068;SDS011;13887;57.196;-2.100;2023-05-10T06:36:22;12.93;;;12.53;;
22068;SDS011;13887;57.196;-2.100;2023-05-10T06:38:51;13.40;;;12.90;;
22068;SDS011;13887;57.196;-2.100;2023-05-10T06:41:18;13.27;;;12.87;;
22068;SDS011;13887;57.196;-2.100;2023-05-10T06:43:45;13.17;;;12.77;;
22068;SDS011;13887;57.196;-2.100;2023-05-10T06:46:12;13.43;;;13.00;;
22068;SDS011;13887;57.196;-2.100;2023-05-10T06:48:39;12.97;;;12.57;;
22068;SDS011;13887;57.196;-2.100;2023-05-10T06:51:05;13.37;;;12.97;;
22068;SDS011;13887;57.196;-2.100;2023-05-10T06:53:32;12.40;;;12.00;;
22068;SDS011;13887;57.196;-2.100;2023-05-10T06:55:59;12.57;;;12.17;;
22068;SDS011;13887;57.196;-2.100;2023-05-10T06:58:26;12.97;;;12.57;;
22068;SDS011;13887;57.196;-2.100;2023-05-10T07:00:54;13.20;;;12.80;;
22068;SDS011;13887;57.196;-2.100;2023-05-10T07:03:27;12.97;;;12.57;;
22068;SDS011;13887;57.196;-2.100;2023-05-10T07:05:59;13.13;;;12.73;;
22068;SDS011;13887;57.196;-2.100;2023-05-10T07:08:30;12.67;;;12.27;;
22068;SDS011;13887;57.196;-2.100;2023-05-10T07:11:04;12.87;;;12.47;;
22068;SDS011;13887;57.196;-2.100;2023-05-10T07:13:35;13.17;;;12.77;;
22068;SDS011;13887;57.196;-2.100;2023-05-10T07:16:02;12.90;;;12.50;;
22068;SDS011;13887;57.196;-2.100;2023-05-10T07:18:30;12.93;;;12.53;;
22068;SDS011;13887;57.196;-2.100;2023-05-10T07:20:57;13.17;;;12.77;;
22068;SDS011;13887;57.196;-2.100;2023-05-10T07:23:24;13.17;;;12.77;;
22068;SDS011;13887;57.196;-2.100;2023-05-10T07:25:51;12.97;;;12.57;;
22068;SDS011;13887;57.196;-2.100;2023-05-10T07:28:18;13.40;;;13.00;;
22068;SDS011;13887;57.196;-2.100;2023-05-10T07:30:45;13.20;;;12.80;;
22068;SDS011;13887;57.196;-2.100;2023-05-10T07:33:13;13.10;;;12.70;;
22068;SDS011;13887;57.196;-2.100;2023-05-10T07:35:41;13.23;;;12.83;;
22068;SDS011;13887;57.196;-2.100;2023-05-10T07:38:08;12.90;;;12.50;;
22068;SDS011;13887;57.196;-2.100;2023-05-10T07:40:37;13.27;;;12.87;;
22068;SDS011;13887;57.196;-2.100;2023-05-10T07:43:04;13.27;;;12.87;;
22068;SDS011;13887;57.196;-2.100;2023-05-10T07:45:32;13.13;;;12.73;;
22068;SDS011;13887;57.196;-2.100;2023-05-10T07:47:59;13.20;;;12.80;;
22068;SDS011;13887;57.196;-2.100;2023-05-10T07:50:26;12.63;;;12.23;;
22068;SDS011;13887;57.196;-2.100;2023-05-10T07:52:54;13.30;;;12.90;;
22068;SDS011;13887;57.196;-2.100;2023-05-10T07:55:21;12.97;;;12.57;;
22068;SDS011;13887;57.196;-2.100;2023-05-10T07:57:47;12.67;;;12.27;;
22068;SDS011;13887;57.196;-2.100;2023-05-10T08:00:17;13.10;;;12.70;;
22068;SDS011;13887;57.196;-2.100;2023-05-10T08:02:45;13.00;;;12.60;;
22068;SDS011;13887;57.196;-2.100;2023-05-10T08:05:13;12.83;;;12.43;;
22068;SDS011;13887;57.196;-2.100;2023-05-10T08:07:41;12.90;;;12.50;;
22068;SDS011;13887;57.196;-2.100;2023-05-10T08:10:09;14.33;;;13.83;;
22068;SDS011;13887;57.196;-2.100;2023-05-10T08:12:37;12.90;;;12.50;;
22068;SDS011;13887;57.196;-2.100;2023-05-10T08:15:05;13.23;;;12.83;;
22068;SDS011;13887;57.196;-2.100;2023-05-10T08:17:33;12.70;;;12.30;;
22068;SDS011;13887;57.196;-2.100;2023-05-10T08:20:00;12.43;;;12.03;;
22068;SDS011;13887;57.196;-2.100;2023-05-10T08:22:27;13.17;;;12.77;;
22068;SDS011;13887;57.196;-2.100;2023-05-10T08:24:54;12.80;;;12.40;;
22068;SDS011;13887;57.196;-2.100;2023-05-10T08:27:21;12.83;;;12.43;;
22068;SDS011;13887;57.196;-2.100;2023-05-10T08:29:48;12.67;;;12.27;;
22068;SDS011;13887;57.196;-2.100;2023-05-10T08:32:16;12.77;;;12.37;;
22068;SDS011;13887;57.196;-2.100;2023-05-10T08:34:43;13.03;;;12.63;;
22068;SDS011;13887;57.196;-2.100;2023-05-10T08:37:10;13.27;;;12.87;;
22068;SDS011;13887;57.196;-2.100;2023-05-10T08:39:40;12.70;;;12.30;;
22068;SDS011;13887;57.196;-2.100;2023-05-10T08:42:07;12.67;;;12.27;;
22068;SDS011;13887;57.196;-2.100;2023-05-10T08:44:36;12.20;;;11.80;;
22068;SDS011;13887;57.196;-2.100;2023-05-10T08:47:06;12.33;;;11.93;;
22068;SDS011;13887;57.196;-2.100;2023-05-10T08:49:34;12.97;;;12.57;;
22068;SDS011;13887;57.196;-2.100;2023-05-10T08:52:02;12.40;;;12.00;;
22068;SDS011;13887;57.196;-2.100;2023-05-10T08:54:32;12.70;;;12.30;;
22068;SDS011;13887;57.196;-2.100;2023-05-10T08:56:59;13.00;;;12.60;;
22068;SDS011;13887;57.196;-2.100;2023-05-10T08:59:27;12.80;;;12.40;;
22068;SDS011;13887;57.196;-2.100;2023-05-10T09:01:55;12.67;;;12.27;;
22068;SDS011;13887;57.196;-2.100;2023-05-10T09:04:25;13.00;;;12.60;;
22068;SDS011;13887;57.196;-2.100;2023-05-10T09:06:52;12.67;;;12.27;;
22068;SDS011;13887;57.196;-2.100;2023-05-10T09:09:19;12.97;;;12.57;;
22068;SDS011;13887;57.196;-2.100;2023-05-10T09:11:47;12.83;;;12.43;;
22068;SDS011;13887;57.196;-2.100;2023-05-10T09:14:15;12.70;;;12.30;;
22068;SDS011;13887;57.196;-2.100;2023-05-10T09:16:42;12.40;;;12.00;;
22068;SDS011;13887;57.196;-2.100;2023-05-10T09:19:09;12.67;;;12.27;;
22068;SDS011;13887;57.196;-2.100;2023-05-10T09:21:36;13.20;;;12.80;;
22068;SDS011;13887;57.196;-2.100;2023-05-10T09:24:06;12.97;;;12.57;;
22068;SDS011;13887;57.196;-2.100;2023-05-10T09:26:35;13.13;;;12.73;;
22068;SDS011;13887;57.196;-2.100;2023-05-10T09:29:11;12.73;;;12.33;;
22068;SDS011;13887;57.196;-2.100;2023-05-10T09:31:48;12.57;;;12.17;;
22068;SDS011;13887;57.196;-2.100;2023-05-10T09:34:30;12.77;;;12.37;;
22068;SDS011;13887;57.196;-2.100;2023-05-10T09:36:59;13.17;;;12.77;;
22068;SDS011;13887;57.196;-2.100;2023-05-10T09:39:34;13.00;;;12.60;;
22068;SDS011;13887;57.196;-2.100;2023-05-10T09:42:05;13.00;;;12.60;;
22068;SDS011;13887;57.196;-2.100;2023-05-10T09:44:33;13.50;;;13.00;;
22068;SDS011;13887;57.196;-2.100;2023-05-10T09:47:01;13.87;;;13.37;;
22068;SDS011;13887;57.196;-2.100;2023-05-10T09:49:29;13.90;;;13.40;;
22068;SDS011;13887;57.196;-2.100;2023-05-10T09:52:06;13.67;;;13.17;;
22068;SDS011;13887;57.196;-2.100;2023-05-10T09:54:34;13.10;;;12.70;;
22068;SDS011;13887;57.196;-2.100;2023-05-10T09:57:01;13.77;;;13.27;;
22068;SDS011;13887;57.196;-2.100;2023-05-10T09:59:29;12.97;;;12.57;;
22068;SDS011;13887;57.196;-2.100;2023-05-10T10:01:57;13.17;;;12.77;;
22068;SDS011;13887;57.196;-2.100;2023-05-10T10:04:26;13.87;;;13.37;;
22068;SDS011;13887;57.196;-2.100;2023-05-10T10:07:03;13.97;;;13.47;;
22068;SDS011;13887;57.196;-2.100;2023-05-10T10:09:32;13.63;;;13.13;;
22068;SDS011;13887;57.196;-2.100;2023-05-10T10:12:02;13.63;;;13.13;;
22068;SDS011;13887;57.196;-2.100;2023-05-10T10:14:31;13.63;;;13.13;;
22068;SDS011;13887;57.196;-2.100;2023-05-10T10:16:58;13.67;;;13.17;;
22068;SDS011;13887;57.196;-2.100;2023-05-10T10:19:30;13.70;;;13.20;;
22068;SDS011;13887;57.196;-2.100;2023-05-10T10:22:02;13.53;;;13.07;;
22068;SDS011;13887;57.196;-2.100;2023-05-10T10:24:29;13.77;;;13.27;;
22068;SDS011;13887;57.196;-2.100;2023-05-10T10:26:57;13.83;;;13.33;;
22068;SDS011;13887;57.196;-2.100;2023-05-10T10:29:33;13.87;;;13.37;;
22068;SDS011;13887;57.196;-2.100;2023-05-10T10:32:22;13.77;;;13.27;;
22068;SDS011;13887;57.196;-2.100;2023-05-10T10:34:51;13.63;;;13.13;;
22068;SDS011;13887;57.196;-2.100;2023-05-10T10:37:18;13.73;;;13.23;;
22068;SDS011;13887;57.196;-2.100;2023-05-10T10:39:47;13.93;;;13.43;;
22068;SDS011;13887;57.196;-2.100;2023-05-10T10:42:37;14.03;;;13.53;;
22068;SDS011;13887;57.196;-2.100;2023-05-10T10:45:16;14.00;;;13.50;;
22068;SDS011;13887;57.196;-2.100;2023-05-10T10:47:44;14.17;;;13.67;;
22068;SDS011;13887;57.196;-2.100;2023-05-10T10:50:11;14.13;;;13.63;;
22068;SDS011;13887;57.196;-2.100;2023-05-10T10:52:43;14.23;;;13.73;;
22068;SDS011;13887;57.196;-2.100;2023-05-10T10:55:11;14.20;;;13.70;;
22068;SDS011;13887;57.196;-2.100;2023-05-10T10:57:49;14.23;;;13.73;;
22068;SDS011;13887;57.196;-2.100;2023-05-10T11:02:53;14.20;;;13.70;;
22068;SDS011;13887;57.196;-2.100;2023-05-10T11:05:33;13.67;;;13.17;;
22068;SDS011;13887;57.196;-2.100;2023-05-10T11:08:11;14.10;;;13.60;;
22068;SDS011;13887;57.196;-2.100;2023-05-10T11:10:39;14.17;;;13.67;;
22068;SDS011;13887;57.196;-2.100;2023-05-10T11:13:08;14.10;;;13.60;;
22068;SDS011;13887;57.196;-2.100;2023-05-10T11:15:39;14.00;;;13.50;;
22068;SDS011;13887;57.196;-2.100;2023-05-10T11:21:08;14.07;;;13.57;;
22068;SDS011;13887;57.196;-2.100;2023-05-10T11:26:09;13.73;;;13.23;;
22068;SDS011;13887;57.196;-2.100;2023-05-10T11:28:43;13.83;;;13.33;;
22068;SDS011;13887;57.196;-2.100;2023-05-10T11:31:14;13.83;;;13.33;;
22068;SDS011;13887;57.196;-2.100;2023-05-10T11:36:14;13.97;;;13.47;;
22068;SDS011;13887;57.196;-2.100;2023-05-10T11:38:42;13.80;;;13.30;;
22068;SDS011;13887;57.196;-2.100;2023-05-10T11:41:10;14.13;;;13.63;;
22068;SDS011;13887;57.196;-2.100;2023-05-10T11:43:41;14.20;;;13.70;;
22068;SDS011;13887;57.196;-2.100;2023-05-10T11:46:09;14.10;;;13.60;;
22068;SDS011;13887;57.196;-2.100;2023-05-10T11:48:39;14.10;;;13.60;;
22068;SDS011;13887;57.196;-2.100;2023-05-10T11:51:09;14.30;;;13.80;;
22068;SDS011;13887;57.196;-2.100;2023-05-10T11:53:37;14.23;;;13.73;;
22068;SDS011;13887;57.196;-2.100;2023-05-10T11:56:10;13.97;;;13.47;;
22068;SDS011;13887;57.196;-2.100;2023-05-10T11:58:38;14.03;;;13.53;;
22068;SDS011;13887;57.196;-2.100;2023-05-10T12:01:06;13.77;;;13.27;;
22068;SDS011;13887;57.196;-2.100;2023-05-10T12:03:34;14.17;;;13.67;;
22068;SDS011;13887;57.196;-2.100;2023-05-10T12:06:01;14.23;;;13.73;;
22068;SDS011;13887;57.196;-2.100;2023-05-10T12:08:29;14.23;;;13.73;;
22068;SDS011;13887;57.196;-2.100;2023-05-10T12:11:07;14.27;;;13.77;;
22068;SDS011;13887;57.196;-2.100;2023-05-10T12:13:38;14.47;;;13.97;;
22068;SDS011;13887;57.196;-2.100;2023-05-10T12:16:16;14.10;;;13.60;;
22068;SDS011;13887;57.196;-2.100;2023-05-10T12:18:49;14.30;;;13.80;;
22068;SDS011;13887;57.196;-2.100;2023-05-10T12:21:20;14.20;;;13.70;;
22068;SDS011;13887;57.196;-2.100;2023-05-10T12:23:51;14.13;;;13.63;;
22068;SDS011;13887;57.196;-2.100;2023-05-10T12:26:23;14.20;;;13.70;;
22068;SDS011;13887;57.196;-2.100;2023-05-10T12:28:53;14.03;;;13.53;;
22068;SDS011;13887;57.196;-2.100;2023-05-10T12:31:20;13.97;;;13.47;;
22068;SDS011;13887;57.196;-2.100;2023-05-10T12:33:47;14.00;;;13.50;;
22068;SDS011;13887;57.196;-2.100;2023-05-10T12:36:15;14.37;;;13.87;;
22068;SDS011;13887;57.196;-2.100;2023-05-10T12:38:44;13.93;;;13.43;;
22068;SDS011;13887;57.196;-2.100;2023-05-10T12:41:15;13.97;;;13.47;;
22068;SDS011;13887;57.196;-2.100;2023-05-10T12:43:44;14.67;;;14.17;;
22068;SDS011;13887;57.196;-2.100;2023-05-10T12:46:15;14.10;;;13.60;;
22068;SDS011;13887;57.196;-2.100;2023-05-10T12:48:44;14.30;;;13.80;;
22068;SDS011;13887;57.196;-2.100;2023-05-10T12:51:12;13.53;;;13.03;;
22068;SDS011;13887;57.196;-2.100;2023-05-10T12:53:42;13.53;;;13.03;;
22068;SDS011;13887;57.196;-2.100;2023-05-10T12:56:12;13.50;;;13.00;;
22068;SDS011;13887;57.196;-2.100;2023-05-10T12:58:39;14.23;;;13.73;;
22068;SDS011;13887;57.196;-2.100;2023-05-10T13:01:06;13.80;;;13.30;;
22068;SDS011;13887;57.196;-2.100;2023-05-10T13:03:33;13.73;;;13.23;;
22068;SDS011;13887;57.196;-2.100;2023-05-10T13:06:00;14.03;;;13.53;;
22068;SDS011;13887;57.196;-2.100;2023-05-10T13:08:27;13.90;;;13.40;;
22068;SDS011;13887;57.196;-2.100;2023-05-10T13:10:56;13.97;;;13.47;;
22068;SDS011;13887;57.196;-2.100;2023-05-10T13:13:22;14.07;;;13.57;;
22068;SDS011;13887;57.196;-2.100;2023-05-10T13:15:49;14.00;;;13.50;;
22068;SDS011;13887;57.196;-2.100;2023-05-10T13:18:16;13.90;;;13.40;;
22068;SDS011;13887;57.196;-2.100;2023-05-10T13:20:43;13.90;;;13.40;;
22068;SDS011;13887;57.196;-2.100;2023-05-10T13:23:10;13.87;;;13.37;;
22068;SDS011;13887;57.196;-2.100;2023-05-10T13:25:37;13.77;;;13.27;;
22068;SDS011;13887;57.196;-2.100;2023-05-10T13:28:04;13.67;;;13.17;;
22068;SDS011;13887;57.196;-2.100;2023-05-10T13:30:31;13.47;;;12.97;;
22068;SDS011;13887;57.196;-2.100;2023-05-10T13:32:58;13.83;;;13.33;;
22068;SDS011;13887;57.196;-2.100;2023-05-10T13:35:25;14.20;;;13.70;;
22068;SDS011;13887;57.196;-2.100;2023-05-10T13:37:52;13.97;;;13.47;;
22068;SDS011;13887;57.196;-2.100;2023-05-10T13:40:19;14.07;;;13.57;;
22068;SDS011;13887;57.196;-2.100;2023-05-10T13:42:46;13.97;;;13.47;;
22068;SDS011;13887;57.196;-2.100;2023-05-10T13:45:13;13.60;;;13.10;;
22068;SDS011;13887;57.196;-2.100;2023-05-10T13:47:41;13.93;;;13.43;;
22068;SDS011;13887;57.196;-2.100;2023-05-10T13:50:08;13.60;;;13.10;;
22068;SDS011;13887;57.196;-2.100;2023-05-10T13:52:34;13.10;;;12.70;;
22068;SDS011;13887;57.196;-2.100;2023-05-10T13:55:02;13.50;;;13.00;;
22068;SDS011;13887;57.196;-2.100;2023-05-10T13:57:29;13.73;;;13.23;;
22068;SDS011;13887;57.196;-2.100;2023-05-10T13:59:56;13.80;;;13.30;;
22068;SDS011;13887;57.196;-2.100;2023-05-10T14:02:23;13.53;;;13.03;;
22068;SDS011;13887;57.196;-2.100;2023-05-10T14:04:51;13.60;;;13.10;;
22068;SDS011;13887;57.196;-2.100;2023-05-10T14:07:18;13.53;;;13.03;;
22068;SDS011;13887;57.196;-2.100;2023-05-10T14:09:45;13.40;;;12.90;;
22068;SDS011;13887;57.196;-2.100;2023-05-10T14:12:12;13.17;;;12.77;;
22068;SDS011;13887;57.196;-2.100;2023-05-10T14:14:40;13.20;;;12.80;;
22068;SDS011;13887;57.196;-2.100;2023-05-10T14:17:07;13.60;;;13.10;;
22068;SDS011;13887;57.196;-2.100;2023-05-10T14:19:37;13.50;;;13.00;;
22068;SDS011;13887;57.196;-2.100;2023-05-10T14:22:05;13.73;;;13.23;;
22068;SDS011;13887;57.196;-2.100;2023-05-10T14:24:32;13.47;;;12.97;;
22068;SDS011;13887;57.196;-2.100;2023-05-10T14:26:59;14.00;;;13.50;;
22068;SDS011;13887;57.196;-2.100;2023-05-10T14:29:26;13.53;;;13.03;;
22068;SDS011;13887;57.196;-2.100;2023-05-10T14:31:53;13.60;;;13.10;;
22068;SDS011;13887;57.196;-2.100;2023-05-10T14:34:20;13.80;;;13.30;;
22068;SDS011;13887;57.196;-2.100;2023-05-10T14:36:47;13.63;;;13.13;;
22068;SDS011;13887;57.196;-2.100;2023-05-10T14:39:14;13.53;;;13.03;;
22068;SDS011;13887;57.196;-2.100;2023-05-10T14:41:41;13.83;;;13.33;;
22068;SDS011;13887;57.196;-2.100;2023-05-10T14:44:09;13.67;;;13.17;;